createdAt,value
2023-10-08T00:00:00.117Z,100812.37
2023-10-08T00:01:05.784Z,100808.34
2023-10-08T00:02:11.558Z,100803.81
2023-10-08T00:03:18.488Z,100801.06
2023-10-08T00:04:24.159Z,100794.78
2023-10-08T00:05:29.864Z,100793.95
2023-10-08T00:06:35.433Z,100794.89
2023-10-08T00:07:41.004Z,100798.45
2023-10-08T00:08:46.670Z,100805.67
2023-10-08T00:09:52.269Z,100815.45
2023-10-08T00:10:57.803Z,100814.13
2023-10-08T00:12:03.317Z,100807.42
2023-10-08T00:13:08.865Z,100814.63
2023-10-08T00:14:14.406Z,100821.4
2023-10-08T00:15:20.071Z,100823.16
2023-10-08T00:16:25.739Z,100815.97
2023-10-08T00:17:31.427Z,100817.21
2023-10-08T00:18:37.369Z,100823.36
2023-10-08T00:19:42.969Z,100815.8
2023-10-08T00:20:48.586Z,100830.53
2023-10-08T00:21:54.240Z,100823.02
2023-10-08T00:22:59.779Z,100827.52
2023-10-08T00:24:05.306Z,100825.25
2023-10-08T00:25:10.816Z,100838.23
2023-10-08T00:26:17.447Z,100844.44
2023-10-08T00:27:22.986Z,100847.13
2023-10-08T00:28:29.666Z,100844.34
2023-10-08T00:29:35.360Z,100843.45
2023-10-08T00:30:41.149Z,100838.57
2023-10-08T00:31:47.707Z,100833.28
2023-10-08T00:32:53.468Z,100833.28
2023-10-08T00:33:59.194Z,100834.14
2023-10-08T00:35:04.902Z,100831.88
2023-10-08T00:36:10.440Z,100830.05
2023-10-08T00:37:15.983Z,100830.95
2023-10-08T00:38:21.887Z,100831.46
2023-10-08T00:39:27.556Z,100832.45
2023-10-08T00:40:33.079Z,100825.83
2023-10-08T00:41:38.739Z,100829.5
2023-10-08T00:42:44.296Z,100826.83
2023-10-08T00:43:49.819Z,100829.5
2023-10-08T00:44:55.375Z,100831.84
2023-10-08T00:46:00.852Z,100830.09
2023-10-08T00:47:06.407Z,100823.8
2023-10-08T00:48:12.051Z,100821.2
2023-10-08T00:49:17.757Z,100819.44
2023-10-08T00:50:23.381Z,100817.34
2023-10-08T00:51:29.028Z,100833.11
2023-10-08T00:52:34.574Z,100841.22
2023-10-08T00:53:40.247Z,100841.66
2023-10-08T00:54:45.939Z,100845.58
2023-10-08T00:55:51.544Z,100834.52
2023-10-08T00:56:57.078Z,100839.05
2023-10-08T00:58:02.764Z,100836.78
2023-10-08T00:59:08.319Z,100835.03
2023-10-08T01:00:14.020Z,100836.2
2023-10-08T01:01:19.780Z,100841.15
2023-10-08T01:02:25.479Z,100838.05
2023-10-08T01:03:31.437Z,100834.11
2023-10-08T01:04:37.066Z,100835.86
2023-10-08T01:05:42.676Z,100831.84
2023-10-08T01:06:48.509Z,100821.91
2023-10-08T01:07:54.280Z,100818.55
2023-10-08T01:08:59.826Z,100806.5
2023-10-08T01:10:05.314Z,100814.53
2023-10-08T01:11:10.880Z,100819.89
2023-10-08T01:12:16.426Z,100823.39
2023-10-08T01:13:22.303Z,100810.76
2023-10-08T01:14:28.021Z,100818.38
2023-10-08T01:15:33.675Z,100817.11
2023-10-08T01:16:39.367Z,100829.61
2023-10-08T01:17:45.212Z,100822.91
2023-10-08T01:18:51.023Z,100830.02
2023-10-08T01:19:56.526Z,100819.79
2023-10-08T01:21:02.052Z,100830.36
2023-10-08T01:22:07.592Z,100829.67
2023-10-08T01:23:13.396Z,100835.86
2023-10-08T01:24:19.462Z,100838.7
2023-10-08T01:25:24.980Z,100838.64
2023-10-08T01:26:30.560Z,100852.51
2023-10-08T01:27:36.123Z,100854.7
2023-10-08T01:28:41.736Z,100860.55
2023-10-08T01:29:47.357Z,100875.69
2023-10-08T01:30:53.075Z,100869.44
2023-10-08T01:31:58.947Z,100874.35
2023-10-08T01:33:04.590Z,100864.16
2023-10-08T01:34:10.398Z,100867.66
2023-10-08T01:35:15.981Z,100862.3
2023-10-08T01:36:21.575Z,100868.09
2023-10-08T01:37:27.091Z,100856.88
2023-10-08T01:38:32.685Z,100860.06
2023-10-08T01:39:38.233Z,100871.26
2023-10-08T01:40:43.781Z,100869.09
2023-10-08T01:41:49.538Z,100880.8
2023-10-08T01:42:55.123Z,100883.89
2023-10-08T01:44:00.763Z,100887.84
2023-10-08T01:45:06.317Z,100891.28
2023-10-08T01:46:11.904Z,100896.63
2023-10-08T01:47:17.722Z,100903.27
2023-10-08T01:48:23.386Z,100909.52
2023-10-08T01:49:29.010Z,100909.52
2023-10-08T01:50:34.646Z,100914.11
2023-10-08T01:51:40.295Z,100921.33
2023-10-08T01:52:45.853Z,100913.77
2023-10-08T01:53:53.943Z,100917.78
2023-10-08T01:54:59.759Z,100918.2
2023-10-08T01:56:05.328Z,100923.55
2023-10-08T01:57:10.991Z,100930.7
2023-10-08T01:58:16.540Z,100929.02
2023-10-08T01:59:22.110Z,100920.98
2023-10-08T02:00:27.688Z,100925.41
2023-10-08T02:01:33.326Z,100925
2023-10-08T02:02:39.213Z,100918.78
2023-10-08T02:03:45.269Z,100924.06
2023-10-08T02:04:51.112Z,100928.09
2023-10-08T02:05:56.785Z,100925.55
2023-10-08T02:07:02.382Z,100922.03
2023-10-08T02:08:07.935Z,100917.61
2023-10-08T02:09:13.910Z,100921.52
2023-10-08T02:10:19.531Z,100925.06
2023-10-08T02:11:25.092Z,100936.19
2023-10-08T02:12:30.701Z,100945.42
2023-10-08T02:13:36.220Z,100946.67
2023-10-08T02:14:41.815Z,100954.36
2023-10-08T02:15:47.600Z,100944.91
2023-10-08T02:16:53.126Z,100939.08
2023-10-08T02:17:58.870Z,100945.27
2023-10-08T02:19:04.546Z,100947.45
2023-10-08T02:20:10.075Z,100939.33
2023-10-08T02:21:15.647Z,100925.52
2023-10-08T02:22:21.161Z,100926.16
2023-10-08T02:23:26.806Z,100928.36
2023-10-08T02:24:32.501Z,100935.88
2023-10-08T02:25:38.098Z,100940.48
2023-10-08T02:26:43.741Z,100954.8
2023-10-08T02:27:49.386Z,100967.68
2023-10-08T02:28:54.893Z,100963.02
2023-10-08T02:30:00.393Z,100960.41
2023-10-08T02:31:05.976Z,100954.7
2023-10-08T02:32:11.524Z,100959.23
2023-10-08T02:33:17.693Z,100956.05
2023-10-08T02:34:23.686Z,100967.27
2023-10-08T02:35:29.275Z,100971.56
2023-10-08T02:36:34.889Z,100975.93
2023-10-08T02:37:40.363Z,100983.45
2023-10-08T02:38:46.072Z,101005.26
2023-10-08T02:39:51.747Z,101008.86
2023-10-08T02:40:57.345Z,101014.67
2023-10-08T02:42:03.143Z,101014.98
2023-10-08T02:43:08.653Z,101017.31
2023-10-08T02:44:14.304Z,101006.19
2023-10-08T02:45:19.913Z,100990.56
2023-10-08T02:46:25.604Z,100981.15
2023-10-08T02:47:31.412Z,100966.04
2023-10-08T02:48:37.173Z,100970.38
2023-10-08T02:49:42.784Z,100979.74
2023-10-08T02:50:48.572Z,100981.08
2023-10-08T02:51:54.273Z,100973.12
2023-10-08T02:52:59.879Z,100977.89
2023-10-08T02:54:05.424Z,100982.01
2023-10-08T02:55:10.964Z,100993.96
2023-10-08T02:56:16.712Z,101010.89
2023-10-08T02:57:22.302Z,101022.19
2023-10-08T02:58:27.835Z,101008.8
2023-10-08T02:59:33.429Z,101008.22
2023-10-08T03:00:39.016Z,101012.23
2023-10-08T03:01:44.687Z,101020.62
2023-10-08T03:02:50.565Z,101030.47
2023-10-08T03:03:57.588Z,101037.68
2023-10-08T03:05:03.318Z,101027.8
2023-10-08T03:06:09.888Z,101023.02
2023-10-08T03:07:15.465Z,101022.53
2023-10-08T03:08:21.049Z,101021.61
2023-10-08T03:09:27.211Z,101032.73
2023-10-08T03:10:32.763Z,101040.2
2023-10-08T03:11:38.342Z,101042.39
2023-10-08T03:12:43.948Z,101034.49
2023-10-08T03:13:49.466Z,101047.54
2023-10-08T03:14:55.032Z,101066.39
2023-10-08T03:16:01.017Z,101073.56
2023-10-08T03:17:06.638Z,101068.97
2023-10-08T03:18:12.380Z,101066.22
2023-10-08T03:19:18.161Z,101060.93
2023-10-08T03:20:23.750Z,101055.67
2023-10-08T03:21:29.347Z,101058.25
2023-10-08T03:22:34.897Z,101064.53
2023-10-08T03:23:40.629Z,101057.42
2023-10-08T03:24:46.238Z,101053.75
2023-10-08T03:25:51.814Z,101051.21
2023-10-08T03:26:57.410Z,101040.21
2023-10-08T03:28:02.982Z,101050.31
2023-10-08T03:29:08.556Z,101061.13
2023-10-08T03:30:14.309Z,101055.77
2023-10-08T03:31:19.961Z,101058.04
2023-10-08T03:32:25.754Z,101072.42
2023-10-08T03:33:31.469Z,101072.01
2023-10-08T03:34:37.098Z,101067.98
2023-10-08T03:35:42.745Z,101056.93
2023-10-08T03:36:48.328Z,101062.12
2023-10-08T03:37:53.882Z,101058.62
2023-10-08T03:38:59.722Z,101069.68
2023-10-08T03:40:05.395Z,101067.06
2023-10-08T03:41:10.944Z,101066.72
2023-10-08T03:42:16.488Z,101080.05
2023-10-08T03:43:22.082Z,101077.5
2023-10-08T03:44:27.606Z,101091.4
2023-10-08T03:45:33.208Z,101090.89
2023-10-08T03:46:38.877Z,101096.66
2023-10-08T03:47:44.515Z,101092.99
2023-10-08T03:48:50.211Z,101089.83
2023-10-08T03:49:55.728Z,101085.81
2023-10-08T03:51:01.255Z,101086.39
2023-10-08T03:52:06.784Z,101082.28
2023-10-08T03:53:12.390Z,101090.25
2023-10-08T03:54:18.063Z,101090.76
2023-10-08T03:55:23.594Z,101093.16
2023-10-08T03:56:29.147Z,101097.23
2023-10-08T03:57:34.807Z,101094.08
2023-10-08T03:58:40.320Z,101097.23
2023-10-08T03:59:46.027Z,101099.91
2023-10-08T04:00:51.655Z,101106.68
2023-10-08T04:01:57.208Z,101104.99
2023-10-08T04:03:02.870Z,101107.38
2023-10-08T04:04:08.678Z,101106.73
2023-10-08T04:05:14.369Z,101110.94
2023-10-08T04:06:19.997Z,101104.84
2023-10-08T04:07:25.508Z,101114.61
2023-10-08T04:08:31.115Z,101117.63
2023-10-08T04:09:36.775Z,101116.52
2023-10-08T04:10:42.341Z,101120.02
2023-10-08T04:11:47.937Z,101132.91
2023-10-08T04:12:53.764Z,101136.19
2023-10-08T04:13:59.297Z,101138.44
2023-10-08T04:15:04.809Z,101141.72
2023-10-08T04:16:10.465Z,101148.56
2023-10-08T04:17:16.145Z,101154.11
2023-10-08T04:18:21.941Z,101159.11
2023-10-08T04:19:28.040Z,101154.37
2023-10-08T04:20:34.038Z,101154.2
2023-10-08T04:21:39.825Z,101159.98
2023-10-08T04:22:45.378Z,101156.66
2023-10-08T04:23:51.121Z,101158.98
2023-10-08T04:24:56.839Z,101168.88
2023-10-08T04:26:02.373Z,101172.45
2023-10-08T04:27:07.994Z,101176.06
2023-10-08T04:28:13.568Z,101178.81
2023-10-08T04:29:19.331Z,101186.86
2023-10-08T04:30:24.878Z,101195.92
2023-10-08T04:31:30.655Z,101191.8
2023-10-08T04:32:36.372Z,101191.91
2023-10-08T04:33:41.974Z,101193.72
2023-10-08T04:34:47.446Z,101195.99
2023-10-08T04:35:53.177Z,101201.08
2023-10-08T04:36:58.895Z,101209.77
2023-10-08T04:38:04.480Z,101202.71
2023-10-08T04:39:10.129Z,101217.11
2023-10-08T04:40:15.977Z,101220.72
2023-10-08T04:41:21.821Z,101219.16
2023-10-08T04:42:27.747Z,101221.94
2023-10-08T04:43:33.873Z,101224.69
2023-10-08T04:44:39.456Z,101233.72
2023-10-08T04:45:45.119Z,101232.44
2023-10-08T04:46:50.787Z,101236.63
2023-10-08T04:47:56.487Z,101237.1
2023-10-08T04:49:02.157Z,101235.06
2023-10-08T04:50:07.760Z,101239.19
2023-10-08T04:51:15.885Z,101241
2023-10-08T04:52:21.418Z,101244.61
2023-10-08T04:53:27.044Z,101248.63
2023-10-08T04:54:33.018Z,101247.01
2023-10-08T04:55:40.991Z,101251.89
2023-10-08T04:56:46.639Z,101253.36
2023-10-08T04:57:52.324Z,101253.42
2023-10-08T04:58:57.855Z,101249.98
2023-10-08T05:00:03.363Z,101265.13
2023-10-08T05:01:08.972Z,101270.14
2023-10-08T05:02:14.546Z,101266.12
2023-10-08T05:03:20.518Z,101264.02
2023-10-08T05:04:28.731Z,101272
2023-10-08T05:05:36.627Z,101271.01
2023-10-08T05:06:42.184Z,101275.86
2023-10-08T05:07:47.720Z,101283
2023-10-08T05:08:53.320Z,101286.03
2023-10-08T05:09:58.908Z,101284.69
2023-10-08T05:11:04.397Z,101282.71
2023-10-08T05:12:09.933Z,101284.47
2023-10-08T05:13:15.481Z,101285.65
2023-10-08T05:14:21.183Z,101288.33
2023-10-08T05:15:26.746Z,101292.34
2023-10-08T05:16:32.432Z,101294.13
2023-10-08T05:17:38.148Z,101292.8
2023-10-08T05:18:43.926Z,101294.39
2023-10-08T05:19:49.480Z,101297.06
2023-10-08T05:20:55.048Z,101302.02
2023-10-08T05:22:03.423Z,101301.5
2023-10-08T05:23:08.988Z,101304.19
2023-10-08T05:24:14.536Z,101302.08
2023-10-08T05:25:20.080Z,101314.84
2023-10-08T05:26:25.733Z,101311.33
2023-10-08T05:27:31.328Z,101315.48
2023-10-08T05:28:36.871Z,101317.39
2023-10-08T05:29:42.512Z,101320.48
2023-10-08T05:30:48.236Z,101322.75
2023-10-08T05:31:53.918Z,101327.12
2023-10-08T05:32:59.640Z,101337.2
2023-10-08T05:34:05.380Z,101343.46
2023-10-08T05:35:10.924Z,101343.56
2023-10-08T05:36:16.525Z,101356.52
2023-10-08T05:37:22.046Z,101352.94
2023-10-08T05:38:27.612Z,101355.11
2023-10-08T05:39:36.564Z,101355.63
2023-10-08T05:40:42.110Z,101349.91
2023-10-08T05:41:47.742Z,101353.07
2023-10-08T05:42:53.469Z,101357.66
2023-10-08T05:43:59.008Z,101366.28
2023-10-08T05:45:04.557Z,101365.77
2023-10-08T05:46:10.088Z,101363.56
2023-10-08T05:47:15.615Z,101359.48
2023-10-08T05:48:21.353Z,101362.67
2023-10-08T05:49:26.991Z,101360.89
2023-10-08T05:50:32.557Z,101366.47
2023-10-08T05:51:38.198Z,101375.82
2023-10-08T05:52:44.055Z,101380.95
2023-10-08T05:53:49.658Z,101375.95
2023-10-08T05:54:56.437Z,101385.04
2023-10-08T05:56:02.314Z,101388.3
2023-10-08T05:57:07.949Z,101394.33
2023-10-08T05:58:13.474Z,101393.41
2023-10-08T05:59:19.531Z,101392.99
2023-10-08T06:00:25.300Z,101395.98
2023-10-08T06:01:31.031Z,101395.58
2023-10-08T06:02:37.157Z,101395.5
2023-10-08T06:03:43.071Z,101397.96
2023-10-08T06:04:48.804Z,101400.51
2023-10-08T06:05:54.389Z,101413.84
2023-10-08T06:07:00.037Z,101416.32
2023-10-08T06:08:05.584Z,101419.89
2023-10-08T06:09:11.534Z,101421.33
2023-10-08T06:10:17.504Z,101413.83
2023-10-08T06:11:23.056Z,101413.29
2023-10-08T06:12:28.675Z,101413.99
2023-10-08T06:13:34.266Z,101410.67
2023-10-08T06:14:39.811Z,101409.33
2023-10-08T06:15:45.393Z,101410.38
2023-10-08T06:16:51.009Z,101418.99
2023-10-08T06:17:59.834Z,101423.58
2023-10-08T06:19:05.677Z,101423.64
2023-10-08T06:20:11.217Z,101431.69
2023-10-08T06:21:16.751Z,101429.99
2023-10-08T06:22:22.277Z,101434.42
2023-10-08T06:23:28.089Z,101433.02
2023-10-08T06:24:33.742Z,101431.88
2023-10-08T06:25:39.241Z,101430.77
2023-10-08T06:26:45.146Z,101434.16
2023-10-08T06:27:50.776Z,101442.61
2023-10-08T06:28:56.362Z,101446.78
2023-10-08T06:30:01.920Z,101444.01
2023-10-08T06:31:07.554Z,101444.52
2023-10-08T06:32:13.115Z,101449.94
2023-10-08T06:33:18.910Z,101451.79
2023-10-08T06:34:24.686Z,101449.52
2023-10-08T06:35:30.361Z,101455.81
2023-10-08T06:36:36.136Z,101461.17
2023-10-08T06:37:41.858Z,101470.1
2023-10-08T06:38:47.466Z,101468.76
2023-10-08T06:39:53.026Z,101473.23
2023-10-08T06:40:58.966Z,101478.14
2023-10-08T06:42:05.606Z,101483.08
2023-10-08T06:43:11.172Z,101478.23
2023-10-08T06:44:17.666Z,101486.69
2023-10-08T06:45:23.399Z,101488.5
2023-10-08T06:46:29.006Z,101489.3
2023-10-08T06:47:34.723Z,101484.93
2023-10-08T06:48:40.483Z,101492.05
2023-10-08T06:49:46.245Z,101491.98
2023-10-08T06:50:52.091Z,101502.19
2023-10-08T06:51:57.943Z,101497.76
2023-10-08T06:53:03.466Z,101501.72
2023-10-08T06:54:08.996Z,101505.86
2023-10-08T06:55:14.762Z,101503.69
2023-10-08T06:56:20.315Z,101508.53
2023-10-08T06:57:25.862Z,101508.13
2023-10-08T06:58:31.412Z,101511.78
2023-10-08T06:59:37.162Z,101505.92
2023-10-08T07:00:42.876Z,101518.42
2023-10-08T07:01:48.948Z,101520.23
2023-10-08T07:02:54.707Z,101518.06
2023-10-08T07:04:01.234Z,101517.63
2023-10-08T07:05:07.332Z,101521.52
2023-10-08T07:06:13.069Z,101526.02
2023-10-08T07:07:18.711Z,101520.75
2023-10-08T07:08:24.598Z,101531.95
2023-10-08T07:09:30.912Z,101530.95
2023-10-08T07:10:36.663Z,101535.39
2023-10-08T07:11:42.290Z,101539.92
2023-10-08T07:12:47.948Z,101539.98
2023-10-08T07:13:53.488Z,101540.4
2023-10-08T07:14:59.053Z,101534.63
2023-10-08T07:16:04.688Z,101533.34
2023-10-08T07:17:10.328Z,101533.85
2023-10-08T07:18:16.072Z,101532.36
2023-10-08T07:19:21.859Z,101529.77
2023-10-08T07:20:27.977Z,101536.47
2023-10-08T07:21:33.547Z,101531.17
2023-10-08T07:22:39.099Z,101536.59
2023-10-08T07:23:44.737Z,101543.59
2023-10-08T07:24:50.289Z,101544.77
2023-10-08T07:25:56.254Z,101546.28
2023-10-08T07:27:01.833Z,101550.84
2023-10-08T07:28:07.483Z,101547.39
2023-10-08T07:29:13.029Z,101545.58
2023-10-08T07:30:18.568Z,101550.42
2023-10-08T07:31:24.166Z,101549.5
2023-10-08T07:32:29.840Z,101549.59
2023-10-08T07:33:35.688Z,101545.58
2023-10-08T07:34:41.342Z,101552.39
2023-10-08T07:35:46.942Z,101556.92
2023-10-08T07:36:52.594Z,101552.61
2023-10-08T07:38:00.608Z,101550.7
2023-10-08T07:39:06.316Z,101552.55
2023-10-08T07:40:11.975Z,101560.23
2023-10-08T07:41:17.507Z,101562.91
2023-10-08T07:42:25.949Z,101565.14
2023-10-08T07:43:31.480Z,101565.5
2023-10-08T07:44:37.749Z,101565.95
2023-10-08T07:45:43.454Z,101566.48
2023-10-08T07:46:48.997Z,101566.13
2023-10-08T07:47:54.629Z,101570.66
2023-10-08T07:49:00.328Z,101572.05
2023-10-08T07:50:05.893Z,101565.86
2023-10-08T07:51:11.403Z,101571.12
2023-10-08T07:52:17.735Z,101569.47
2023-10-08T07:53:23.582Z,101565.86
2023-10-08T07:54:29.309Z,101571.28
2023-10-08T07:55:34.878Z,101568.66
2023-10-08T07:56:40.633Z,101577.15
2023-10-08T07:57:46.412Z,101583.97
2023-10-08T07:58:51.900Z,101575.92
2023-10-08T07:59:58.079Z,101582.27
2023-10-08T08:01:03.701Z,101581.34
2023-10-08T08:02:09.282Z,101577.84
2023-10-08T08:03:15.061Z,101582.63
2023-10-08T08:04:20.848Z,101583.61
2023-10-08T08:05:26.756Z,101579.53
2023-10-08T08:06:32.424Z,101582.27
2023-10-08T08:07:37.955Z,101582.84
2023-10-08T08:08:43.596Z,101585.1
2023-10-08T08:09:52.496Z,101583.02
2023-10-08T08:10:58.380Z,101580.45
2023-10-08T08:12:04.122Z,101580.34
2023-10-08T08:13:09.692Z,101584.36
2023-10-08T08:14:15.500Z,101587.93
2023-10-08T08:15:21.024Z,101585.81
2023-10-08T08:16:26.614Z,101585.46
2023-10-08T08:17:32.621Z,101593.91
2023-10-08T08:18:38.541Z,101596.59
2023-10-08T08:19:44.253Z,101605.55
2023-10-08T08:20:49.902Z,101615.44
2023-10-08T08:21:55.487Z,101614.16
2023-10-08T08:23:01.021Z,101613.64
2023-10-08T08:24:06.919Z,101615.91
2023-10-08T08:25:12.634Z,101620.85
2023-10-08T08:26:18.194Z,101613.64
2023-10-08T08:27:23.722Z,101618.23
2023-10-08T08:28:29.630Z,101619.63
2023-10-08T08:29:35.201Z,101621.89
2023-10-08T08:30:41.159Z,101624.98
2023-10-08T08:31:46.766Z,101624.16
2023-10-08T08:32:55.459Z,101626.42
2023-10-08T08:34:01.234Z,101620.14
2023-10-08T08:35:06.747Z,101625.91
2023-10-08T08:36:12.379Z,101634.36
2023-10-08T08:37:17.909Z,101631.42
2023-10-08T08:38:23.442Z,101634.58
2023-10-08T08:39:29.058Z,101642.61
2023-10-08T08:40:34.833Z,101646.63
2023-10-08T08:41:40.569Z,101646.63
2023-10-08T08:42:46.302Z,101647.7
2023-10-08T08:43:51.902Z,101654.4
2023-10-08T08:46:03.280Z,101651.72
2023-10-08T08:47:09.016Z,101651.78
2023-10-08T08:48:14.892Z,101652.19
2023-10-08T08:49:20.531Z,101660.73
2023-10-08T08:50:26.135Z,101663.89
2023-10-08T08:51:31.802Z,101661.98
2023-10-08T08:52:37.299Z,101660.8
2023-10-08T08:53:42.967Z,101665.73
2023-10-08T08:54:48.538Z,101664.52
2023-10-08T08:55:54.068Z,101671.63
2023-10-08T08:56:59.665Z,101668.05
2023-10-08T08:58:05.310Z,101663.68
2023-10-08T08:59:10.835Z,101661.84
2023-10-08T09:00:16.357Z,101665.44
2023-10-08T09:01:22.052Z,101665.02
2023-10-08T09:02:27.832Z,101663.73
2023-10-08T09:03:34.019Z,101673.53
2023-10-08T09:04:40.035Z,101668.59
2023-10-08T09:05:45.711Z,101680.23
2023-10-08T09:06:51.385Z,101676.98
2023-10-08T09:07:57.941Z,101679.55
2023-10-08T09:09:03.869Z,101674.75
2023-10-08T09:10:09.538Z,101677.08
2023-10-08T09:11:15.105Z,101676.63
2023-10-08T09:12:20.668Z,101674.39
2023-10-08T09:13:26.278Z,101672.61
2023-10-08T09:14:31.838Z,101679.81
2023-10-08T09:15:37.580Z,101678.73
2023-10-08T09:16:43.249Z,101673.8
2023-10-08T09:17:49.058Z,101670.19
2023-10-08T09:18:55.780Z,101673.68
2023-10-08T09:20:01.288Z,101681.27
2023-10-08T09:21:06.937Z,101682.61
2023-10-08T09:22:12.616Z,101683.11
2023-10-08T09:23:18.195Z,101676.47
2023-10-08T09:24:23.718Z,101684.3
2023-10-08T09:25:29.212Z,101689.66
2023-10-08T09:26:34.861Z,101679.3
2023-10-08T09:27:40.832Z,101684.09
2023-10-08T09:28:49.214Z,101679.66
2023-10-08T09:29:54.864Z,101690.38
2023-10-08T09:31:00.477Z,101686.77
2023-10-08T09:32:06.276Z,101700.99
2023-10-08T09:33:11.925Z,101681.47
2023-10-08T09:34:17.803Z,101694.3
2023-10-08T09:35:23.381Z,101687.19
2023-10-08T09:36:28.911Z,101685.55
2023-10-08T09:37:34.493Z,101691.77
2023-10-08T09:38:40.095Z,101692.69
2023-10-08T09:39:45.706Z,101696.34
2023-10-08T09:40:51.308Z,101694.5
2023-10-08T09:41:57.094Z,101699.38
2023-10-08T09:43:02.748Z,101699.45
2023-10-08T09:44:08.258Z,101691.41
2023-10-08T09:45:13.823Z,101693.22
2023-10-08T09:46:19.461Z,101695.48
2023-10-08T09:47:25.333Z,101690.63
2023-10-08T09:48:31.185Z,101690.99
2023-10-08T09:49:36.987Z,101697.75
2023-10-08T09:50:42.644Z,101704.38
2023-10-08T09:51:48.269Z,101695.06
2023-10-08T09:52:53.837Z,101695.55
2023-10-08T09:53:59.426Z,101695.13
2023-10-08T09:55:05.450Z,101694.2
2023-10-08T09:56:10.929Z,101693.31
2023-10-08T09:57:16.453Z,101695.06
2023-10-08T09:58:22.024Z,101691.05
2023-10-08T09:59:27.613Z,101696.47
2023-10-08T10:00:36.163Z,101690.19
2023-10-08T10:01:41.854Z,101694.2
2023-10-08T10:02:47.751Z,101693.31
2023-10-08T10:03:53.790Z,101682.24
2023-10-08T10:04:59.492Z,101698.31
2023-10-08T10:06:05.103Z,101693.94
2023-10-08T10:07:10.676Z,101699.2
2023-10-08T10:08:16.253Z,101701.05
2023-10-08T10:09:21.800Z,101712.32
2023-10-08T10:10:27.663Z,101704.7
2023-10-08T10:11:33.320Z,101698.93
2023-10-08T10:12:38.887Z,101703.42
2023-10-08T10:13:44.923Z,101700.74
2023-10-08T10:14:50.524Z,101708.3
2023-10-08T10:15:56.124Z,101717.31
2023-10-08T10:17:01.699Z,101714.64
2023-10-08T10:18:07.373Z,101715
2023-10-08T10:19:13.210Z,101722.59
2023-10-08T10:20:18.954Z,101725.63
2023-10-08T10:21:24.478Z,101730.56
2023-10-08T10:22:30.007Z,101722.11
2023-10-08T10:23:35.680Z,101727.05
2023-10-08T10:24:41.273Z,101720.77
2023-10-08T10:25:46.843Z,101725.71
2023-10-08T10:26:52.415Z,101720.83
2023-10-08T10:27:58.096Z,101723.92
2023-10-08T10:29:03.667Z,101727.16
2023-10-08T10:30:09.346Z,101730.26
2023-10-08T10:31:14.922Z,101728.03
2023-10-08T10:32:20.583Z,101716.4
2023-10-08T10:33:26.283Z,101727.52
2023-10-08T10:34:31.919Z,101735.7
2023-10-08T10:35:37.510Z,101725.91
2023-10-08T10:36:43.099Z,101734.37
2023-10-08T10:37:48.736Z,101724.48
2023-10-08T10:38:54.307Z,101719.22
2023-10-08T10:39:59.859Z,101732.61
2023-10-08T10:41:05.445Z,101731.44
2023-10-08T10:42:11.030Z,101720.26
2023-10-08T10:43:16.551Z,101735.81
2023-10-08T10:44:22.170Z,101729.13
2023-10-08T10:45:27.741Z,101733.7
2023-10-08T10:46:33.706Z,101722.02
2023-10-08T10:47:39.352Z,101736.27
2023-10-08T10:48:45.241Z,101722.88
2023-10-08T10:49:51.013Z,101719.84
2023-10-08T10:50:56.616Z,101727.37
2023-10-08T10:52:02.308Z,101730.82
2023-10-08T10:53:07.817Z,101725.41
2023-10-08T10:54:13.870Z,101730.82
2023-10-08T10:55:19.780Z,101731.33
2023-10-08T10:56:25.319Z,101734.98
2023-10-08T10:57:31.007Z,101740.34
2023-10-08T10:58:36.688Z,101741.63
2023-10-08T10:59:45.540Z,101745.28
2023-10-08T11:00:51.261Z,101746.17
2023-10-08T11:01:56.885Z,101739.48
2023-10-08T11:03:02.885Z,101729.63
2023-10-08T11:04:08.959Z,101731.8
2023-10-08T11:05:14.767Z,101734.01
2023-10-08T11:06:20.352Z,101736.18
2023-10-08T11:07:25.948Z,101740.28
2023-10-08T11:08:31.654Z,101744.36
2023-10-08T11:09:37.394Z,101743.94
2023-10-08T11:10:43.025Z,101745.13
2023-10-08T11:11:48.645Z,101743.85
2023-10-08T11:12:54.387Z,101745.7
2023-10-08T11:13:59.930Z,101754.2
2023-10-08T11:15:06.721Z,101745.7
2023-10-08T11:16:12.427Z,101737.36
2023-10-08T11:17:18.118Z,101739.2
2023-10-08T11:18:26.705Z,101741.02
2023-10-08T11:19:32.354Z,101731.34
2023-10-08T11:20:38.007Z,101736.22
2023-10-08T11:21:43.640Z,101728.97
2023-10-08T11:22:49.171Z,101732.56
2023-10-08T11:23:55.201Z,101730.81
2023-10-08T11:25:01.262Z,101734.89
2023-10-08T11:26:07.281Z,101726.8
2023-10-08T11:27:12.927Z,101724.59
2023-10-08T11:28:18.486Z,101730.81
2023-10-08T11:29:24.000Z,101719.38
2023-10-08T11:30:29.528Z,101723.61
2023-10-08T11:31:35.711Z,101717.84
2023-10-08T11:32:41.729Z,101728.13
2023-10-08T11:33:47.383Z,101727.69
2023-10-08T11:34:53.078Z,101735.25
2023-10-08T11:35:58.718Z,101729.02
2023-10-08T11:37:04.487Z,101721.08
2023-10-08T11:38:09.981Z,101725.01
2023-10-08T11:39:15.513Z,101727.83
2023-10-08T11:40:21.004Z,101720.22
2023-10-08T11:41:26.523Z,101729.02
2023-10-08T11:42:32.140Z,101713.31
2023-10-08T11:43:37.731Z,101721.86
2023-10-08T11:44:43.315Z,101720.52
2023-10-08T11:45:48.862Z,101725.88
2023-10-08T11:46:54.698Z,101726.91
2023-10-08T11:48:00.480Z,101725.16
2023-10-08T11:49:06.185Z,101726.44
2023-10-08T11:50:11.822Z,101730
2023-10-08T11:51:17.400Z,101726.44
2023-10-08T11:52:23.389Z,101728.75
2023-10-08T11:53:29.015Z,101726.97
2023-10-08T11:54:34.676Z,101725.16
2023-10-08T11:55:40.274Z,101727.83
2023-10-08T11:56:46.044Z,101724.29
2023-10-08T11:57:51.778Z,101727.22
2023-10-08T11:58:57.338Z,101721.5
2023-10-08T12:00:03.012Z,101726.85
2023-10-08T12:01:13.918Z,101726.85
2023-10-08T12:02:19.526Z,101734.02
2023-10-08T12:03:25.320Z,101738.48
2023-10-08T12:04:31.528Z,101741.94
2023-10-08T12:05:37.918Z,101745.03
2023-10-08T12:06:43.929Z,101747.41
2023-10-08T12:07:49.548Z,101741.27
2023-10-08T12:08:55.242Z,101747.5
2023-10-08T12:10:00.862Z,101750.23
2023-10-08T12:11:06.414Z,101756
2023-10-08T12:12:12.304Z,101750.23
2023-10-08T12:13:20.314Z,101752.86
2023-10-08T12:14:25.804Z,101747.55
2023-10-08T12:15:31.397Z,101757.34
2023-10-08T12:16:36.965Z,101752.91
2023-10-08T12:17:42.624Z,101763.2
2023-10-08T12:18:48.517Z,101753.95
2023-10-08T12:19:54.508Z,101753.02
2023-10-08T12:21:00.131Z,101755.34
2023-10-08T12:22:05.820Z,101758.83
2023-10-08T12:23:11.317Z,101758.52
2023-10-08T12:24:17.612Z,101760.78
2023-10-08T12:25:23.310Z,101764.8
2023-10-08T12:26:28.854Z,101765.69
2023-10-08T12:27:34.377Z,101768.25
2023-10-08T12:28:39.916Z,101772.69
2023-10-08T12:29:45.595Z,101767.84
2023-10-08T12:30:51.329Z,101767.84
2023-10-08T12:31:56.996Z,101759.86
2023-10-08T12:33:03.027Z,101762.95